createdAt,value
2019-04-21T00:02:03.504Z,92.70
2019-04-21T00:04:43.390Z,92.80
2019-04-21T00:07:19.331Z,92.80
2019-04-21T00:09:52.361Z,92.90
2019-04-21T00:12:18.255Z,92.90
2019-04-21T00:14:43.356Z,92.80
2019-04-21T00:17:06.145Z,93.10
2019-04-21T00:19:42.559Z,93.00
2019-04-21T00:22:26.102Z,93.30
2019-04-21T00:24:54.366Z,93.40
2019-04-21T00:27:25.610Z,93.50
2019-04-21T00:29:58.040Z,93.70
2019-04-21T00:32:25.385Z,93.60
2019-04-21T00:34:50.310Z,93.50
2019-04-21T00:37:22.476Z,93.50
2019-04-21T00:42:30.317Z,93.70
2019-04-21T00:44:55.652Z,93.80
2019-04-21T00:47:31.754Z,94.00
2019-04-21T00:50:01.999Z,94.00
2019-04-21T00:55:31.250Z,94.40
2019-04-21T00:57:51.947Z,94.80
2019-04-21T01:00:18.644Z,95.20
2019-04-21T01:05:18.255Z,95.40
2019-04-21T01:07:42.397Z,95.30
2019-04-21T01:10:05.233Z,95.20
2019-04-21T01:12:43.044Z,95.10
2019-04-21T01:15:18.587Z,95.40
2019-04-21T01:17:41.819Z,95.70
2019-04-21T01:20:02.836Z,95.80
2019-04-21T01:22:18.275Z,95.70
2019-04-21T01:24:48.734Z,95.60
2019-04-21T01:27:25.194Z,95.80
2019-04-21T01:30:07.229Z,95.80
2019-04-21T01:32:37.479Z,95.70
2019-04-21T01:35:09.880Z,95.80
2019-04-21T01:37:44.033Z,95.80
2019-04-21T01:40:10.495Z,95.50
2019-04-21T01:42:33.400Z,95.50
2019-04-21T01:45:05.454Z,95.50
2019-04-21T01:47:31.430Z,95.90
2019-04-21T01:49:58.030Z,95.80
2019-04-21T01:52:43.944Z,95.80
2019-04-21T01:55:18.365Z,96.50
2019-04-21T01:58:11.364Z,96.60
2019-04-21T02:00:54.359Z,96.80
2019-04-21T02:03:41.725Z,96.70
2019-04-21T02:06:02.295Z,96.90
2019-04-21T02:08:21.555Z,96.90
2019-04-21T02:10:57.154Z,97.20
2019-04-21T02:13:16.873Z,97.50
2019-04-21T02:15:56.376Z,97.60
2019-04-21T02:18:16.995Z,97.60
2019-04-21T02:20:39.872Z,97.50
2019-04-21T02:23:26.437Z,97.60
2019-04-21T02:25:50.644Z,97.60
2019-04-21T02:28:29.769Z,97.50
2019-04-21T02:31:09.622Z,97.50
2019-04-21T02:33:43.062Z,97.50
2019-04-21T02:36:00.590Z,97.30
2019-04-21T02:38:30.711Z,97.10
2019-04-21T02:40:49.473Z,97.00
2019-04-21T02:43:25.115Z,97.40
2019-04-21T02:45:58.569Z,97.00
2019-04-21T02:53:30.532Z,96.80
2019-04-21T02:55:58.735Z,97.00
2019-04-21T02:58:34.430Z,96.60
2019-04-21T03:01:31.272Z,96.70
2019-04-21T03:04:15.861Z,97.10
2019-04-21T03:07:09.679Z,96.90
2019-04-21T03:09:32.088Z,96.80
2019-04-21T03:14:46.466Z,97.10
2019-04-21T03:17:05.591Z,97.10
2019-04-21T03:19:48.153Z,96.90
2019-04-21T03:22:09.730Z,96.90
2019-04-21T03:24:40.305Z,96.80
2019-04-21T03:27:12.174Z,96.70
2019-04-21T03:32:36.703Z,96.70
2019-04-21T03:35:00.430Z,96.80
2019-04-21T03:37:14.019Z,96.80
2019-04-21T03:39:31.261Z,96.80
2019-04-21T03:42:12.426Z,96.80
2019-04-21T03:44:32.459Z,96.80
2019-04-21T03:52:03.543Z,96.60
2019-04-21T03:54:37.335Z,96.70
2019-04-21T03:57:24.047Z,96.80
2019-04-21T03:59:31.677Z,96.90
2019-04-21T04:02:28.056Z,97.10
2019-04-21T04:05:01.061Z,97.10
2019-04-21T04:10:11.815Z,97.30
2019-04-21T04:12:44.332Z,97.20
2019-04-21T04:15:23.764Z,97.20
2019-04-21T04:17:40.803Z,97.20
2019-04-21T04:20:19.189Z,97.10
2019-04-21T04:25:11.520Z,97.20
2019-04-21T04:30:14.743Z,97.20
2019-04-21T04:37:44.671Z,97.30
2019-04-21T04:40:46.912Z,97.30
2019-04-21T04:43:13.207Z,97.30
2019-04-21T04:48:05.835Z,97.40
2019-04-21T04:50:43.338Z,97.70
2019-04-21T04:53:01.590Z,97.60
2019-04-21T04:55:33.748Z,97.70
2019-04-21T04:58:16.093Z,98.10
2019-04-21T05:01:00.019Z,97.90
2019-04-21T05:03:01.004Z,97.90
2019-04-21T05:05:38.457Z,97.90
2019-04-21T05:10:50.938Z,97.80
2019-04-21T05:13:14.335Z,97.70
2019-04-21T05:15:28.582Z,97.90
2019-04-21T05:18:25.175Z,97.90
2019-04-21T05:20:23.677Z,97.90
2019-04-21T05:22:58.153Z,97.90
2019-04-21T05:25:19.475Z,97.90
2019-04-21T05:27:47.280Z,98.00
2019-04-21T05:30:41.932Z,97.90
2019-04-21T05:33:25.718Z,98.10
2019-04-21T05:36:11.036Z,98.10
2019-04-21T05:38:53.062Z,98.00
2019-04-21T05:41:23.197Z,98.00
2019-04-21T05:43:56.407Z,98.00
2019-04-21T05:46:31.871Z,98.10
2019-04-21T05:49:05.622Z,98.00
2019-04-21T05:51:30.347Z,98.00
2019-04-21T05:54:09.296Z,98.40
2019-04-21T05:56:32.087Z,98.30
2019-04-21T05:58:55.427Z,98.30
2019-04-21T06:01:33.413Z,98.30
2019-04-21T06:04:07.185Z,98.20
2019-04-21T06:06:41.029Z,98.00
2019-04-21T06:08:58.388Z,97.90
2019-04-21T06:11:32.036Z,97.90
2019-04-21T06:14:03.786Z,98.10
2019-04-21T06:16:36.448Z,97.90
2019-04-21T06:19:01.041Z,98.30
2019-04-21T06:21:27.508Z,97.90
2019-04-21T06:23:57.371Z,97.80
2019-04-21T06:26:53.826Z,97.60
2019-04-21T06:31:47.359Z,97.50
2019-04-21T06:33:58.861Z,97.30
2019-04-21T06:39:11.623Z,97.10
2019-04-21T06:41:34.009Z,96.70
2019-04-21T06:46:35.474Z,96.20
2019-04-21T06:51:33.747Z,94.10
2019-04-21T06:56:38.122Z,93.10
2019-04-21T06:59:01.311Z,92.70
2019-04-21T07:01:36.027Z,92.60
2019-04-21T07:06:40.395Z,90.80
2019-04-21T07:09:10.415Z,90.00
2019-04-21T07:11:25.287Z,90.30
2019-04-21T07:14:20.865Z,90.30
2019-04-21T07:16:34.704Z,89.80
2019-04-21T07:19:09.805Z,89.80
2019-04-21T07:21:32.468Z,88.80
2019-04-21T07:24:05.829Z,88.30
2019-04-21T07:26:29.694Z,88.40
2019-04-21T07:29:01.780Z,87.60
2019-04-21T07:31:31.709Z,87.40
2019-04-21T07:34:10.186Z,84.50
2019-04-21T07:36:43.975Z,84.60
2019-04-21T07:38:55.604Z,84.40
2019-04-21T07:41:18.522Z,84.50
2019-04-21T07:43:55.944Z,84.70
2019-04-21T07:46:23.681Z,84.10
2019-04-21T07:49:19.146Z,83.30
2019-04-21T07:52:26.476Z,85.20
2019-04-21T07:54:57.422Z,85.60
2019-04-21T07:57:15.555Z,84.20
2019-04-21T07:59:57.855Z,84.30
2019-04-21T08:02:17.062Z,81.60
2019-04-21T08:07:24.515Z,79.30
2019-04-21T08:09:46.729Z,79.00
2019-04-21T08:12:15.767Z,77.60
2019-04-21T08:14:53.538Z,76.70
2019-04-21T08:17:16.172Z,77.40
2019-04-21T08:19:46.168Z,76.10
2019-04-21T08:22:20.245Z,74.00
2019-04-21T08:24:50.123Z,70.50
2019-04-21T08:27:17.741Z,73.80
2019-04-21T08:29:46.256Z,73.50
2019-04-21T08:32:15.809Z,72.50
2019-04-21T08:34:55.831Z,73.80
2019-04-21T08:37:13.885Z,70.80
2019-04-21T08:42:10.429Z,70.00
2019-04-21T08:44:46.656Z,71.70
2019-04-21T08:47:12.841Z,69.70
2019-04-21T08:49:41.526Z,68.80
2019-04-21T08:52:21.241Z,65.40
2019-04-21T08:54:43.104Z,63.30
2019-04-21T08:57:24.560Z,63.30
2019-04-21T09:00:08.433Z,63.20
2019-04-21T09:02:47.151Z,63.60
2019-04-21T09:05:17.736Z,62.50
2019-04-21T09:07:51.023Z,62.70
2019-04-21T09:10:17.652Z,63.00
2019-04-21T09:12:46.607Z,62.50
2019-04-21T09:15:17.358Z,59.00
2019-04-21T09:17:36.760Z,56.30
2019-04-21T09:20:20.960Z,57.40
2019-04-21T09:22:45.769Z,59.40
2019-04-21T09:25:19.365Z,57.20
2019-04-21T09:27:44.071Z,55.00
2019-04-21T09:30:00.325Z,54.10
2019-04-21T09:32:27.563Z,54.10
2019-04-21T09:34:54.069Z,54.10
2019-04-21T09:37:35.326Z,51.00
2019-04-21T09:39:54.136Z,53.30
2019-04-21T09:42:21.920Z,53.30
2019-04-21T09:44:53.827Z,52.10
2019-04-21T09:47:24.560Z,52.50
2019-04-21T09:49:50.029Z,52.90
2019-04-21T09:52:20.914Z,53.30
2019-04-21T09:54:56.623Z,51.20
2019-04-21T09:57:29.959Z,51.70
2019-04-21T09:59:55.773Z,51.80
2019-04-21T10:02:25.237Z,51.80
2019-04-21T10:04:46.252Z,51.40
2019-04-21T10:07:24.349Z,51.70
2019-04-21T10:09:43.659Z,47.40
2019-04-21T10:12:11.894Z,49.80
2019-04-21T10:14:40.825Z,48.70
2019-04-21T10:17:24.263Z,47.40
2019-04-21T10:19:52.887Z,49.30
2019-04-21T10:22:21.158Z,47.90
2019-04-21T10:24:48.873Z,46.40
2019-04-21T10:27:17.122Z,46.80
2019-04-21T10:29:47.235Z,44.60
2019-04-21T10:32:15.570Z,47.30
2019-04-21T10:34:45.231Z,46.70
2019-04-21T10:37:13.377Z,46.40
2019-04-21T10:39:43.139Z,46.70
2019-04-21T10:42:11.289Z,46.10
2019-04-21T10:44:38.952Z,44.20
2019-04-21T10:47:06.911Z,46.30
2019-04-21T10:49:35.016Z,46.50
2019-04-21T10:52:06.700Z,46.30
2019-04-21T10:54:57.278Z,42.60
2019-04-21T10:57:08.361Z,43.80
2019-04-21T10:59:37.223Z,43.50
2019-04-21T11:02:08.791Z,42.90
2019-04-21T11:04:38.586Z,43.20
2019-04-21T11:07:31.388Z,43.30
2019-04-21T11:09:56.094Z,45.40
2019-04-21T11:12:24.185Z,41.70
2019-04-21T11:14:51.756Z,42.40
2019-04-21T11:17:19.863Z,41.80
2019-04-21T11:19:48.549Z,40.40
2019-04-21T11:22:16.769Z,41.70
2019-04-21T11:24:44.995Z,42.10
2019-04-21T11:27:12.788Z,41.90
2019-04-21T11:29:41.334Z,41.10
2019-04-21T11:32:09.342Z,37.70
2019-04-21T11:34:37.278Z,36.30
2019-04-21T11:37:06.555Z,35.40
2019-04-21T11:39:46.083Z,35.50
2019-04-21T11:42:13.556Z,37.50
2019-04-21T11:44:41.717Z,32.60
2019-04-21T11:47:16.601Z,33.80
2019-04-21T11:49:45.244Z,35.30
2019-04-21T11:52:13.356Z,37.00
2019-04-21T11:54:42.680Z,36.30
2019-04-21T11:57:16.063Z,37.90
2019-04-21T11:59:40.025Z,37.10
2019-04-21T12:02:07.865Z,36.80
2019-04-21T12:04:35.801Z,37.30
2019-04-21T12:07:04.990Z,34.50
2019-04-21T12:09:33.758Z,35.50
2019-04-21T12:12:01.315Z,34.30
2019-04-21T12:14:30.161Z,33.80
2019-04-21T12:16:59.210Z,37.70
2019-04-21T12:19:27.113Z,34.10
2019-04-21T12:22:05.022Z,35.70
2019-04-21T12:24:24.987Z,33.00
2019-04-21T12:26:53.799Z,33.20
2019-04-21T12:29:22.710Z,34.50
2019-04-21T12:32:22.215Z,33.40
2019-04-21T12:34:51.769Z,32.60
2019-04-21T12:37:19.294Z,32.40
2019-04-21T12:39:48.496Z,31.50
2019-04-21T12:42:16.645Z,31.60
2019-04-21T12:44:45.438Z,32.80
2019-04-21T12:47:14.167Z,33.30
2019-04-21T12:49:43.484Z,34.10
2019-04-21T12:52:11.498Z,31.90
2019-04-21T12:54:39.651Z,34.20
2019-04-21T12:57:07.689Z,33.60
2019-04-21T12:59:36.303Z,32.60
2019-04-21T13:02:05.772Z,32.30
2019-04-21T13:04:33.546Z,32.70
2019-04-21T13:07:01.540Z,32.90
2019-04-21T13:09:30.717Z,32.50
2019-04-21T13:11:59.451Z,32.20
2019-04-21T13:14:27.354Z,32.40
2019-04-21T13:16:55.120Z,32.60
2019-04-21T13:19:23.631Z,30.80
2019-04-21T13:21:52.063Z,32.20
2019-04-21T13:24:19.993Z,31.80
2019-04-21T13:26:53.637Z,30.00
2019-04-21T13:29:18.416Z,30.00
2019-04-21T13:31:45.933Z,31.70
2019-04-21T13:34:14.021Z,30.30
2019-04-21T13:36:41.515Z,31.60
2019-04-21T13:39:57.126Z,28.80
2019-04-21T13:42:14.509Z,29.30
2019-04-21T13:44:33.026Z,28.50
2019-04-21T13:47:00.813Z,30.30
2019-04-21T13:49:29.619Z,30.30
2019-04-21T13:51:57.504Z,29.60
2019-04-21T13:54:25.424Z,30.10
2019-04-21T13:56:54.393Z,30.50
2019-04-21T13:59:22.495Z,29.80
2019-04-21T14:01:50.122Z,29.60
2019-04-21T14:04:17.858Z,28.90
2019-04-21T14:06:45.487Z,29.10
2019-04-21T14:09:13.854Z,29.90
2019-04-21T14:11:41.491Z,29.30
2019-04-21T14:14:10.401Z,29.60
2019-04-21T14:16:38.194Z,28.90
2019-04-21T14:19:05.691Z,28.90
2019-04-21T14:21:33.767Z,29.50
2019-04-21T14:24:01.385Z,29.60
2019-04-21T14:26:29.944Z,29.60
2019-04-21T14:28:58.851Z,29.60
2019-04-21T14:31:26.482Z,28.30
2019-04-21T14:33:54.213Z,28.50
2019-04-21T14:36:22.987Z,29.60
2019-04-21T14:38:50.623Z,28.50
2019-04-21T14:41:18.066Z,28.20
2019-04-21T14:43:45.951Z,29.00
2019-04-21T14:46:37.473Z,29.70
2019-04-21T14:49:19.431Z,29.30
2019-04-21T14:51:50.839Z,30.60
2019-04-21T14:54:46.963Z,30.30
2019-04-21T14:57:15.546Z,29.70
2019-04-21T14:59:44.783Z,29.50
2019-04-21T15:02:14.033Z,29.80
2019-04-21T15:04:41.879Z,29.30
2019-04-21T15:07:09.730Z,30.80
2019-04-21T15:09:39.252Z,30.00
2019-04-21T15:12:07.946Z,29.80
2019-04-21T15:14:36.005Z,29.80
2019-04-21T15:17:04.974Z,28.50
2019-04-21T15:19:32.842Z,29.50
2019-04-21T15:22:00.688Z,29.80
2019-04-21T15:24:30.139Z,29.10
2019-04-21T15:26:59.055Z,29.70
2019-04-21T15:29:26.817Z,29.40
2019-04-21T15:31:54.740Z,29.30
2019-04-21T15:34:25.357Z,29.70
2019-04-21T15:36:52.376Z,30.00
2019-04-21T15:39:19.899Z,31.10
2019-04-21T15:41:48.321Z,30.90
2019-04-21T15:44:16.496Z,30.10
2019-04-21T15:46:46.047Z,31.10
2019-04-21T15:49:13.622Z,31.70
2019-04-21T15:51:42.156Z,29.90
2019-04-21T15:54:10.940Z,30.30
2019-04-21T15:56:42.756Z,31.40
2019-04-21T15:59:33.067Z,30.90
2019-04-21T16:02:18.913Z,31.50
2019-04-21T16:04:46.621Z,30.80
2019-04-21T16:07:14.150Z,31.50
2019-04-21T16:09:41.874Z,31.30
2019-04-21T16:12:09.979Z,30.60
2019-04-21T16:14:38.644Z,31.20
2019-04-21T16:17:07.560Z,30.60
2019-04-21T16:19:36.336Z,31.30
2019-04-21T16:22:03.952Z,31.20
2019-04-21T16:24:31.740Z,30.00
2019-04-21T16:27:01.711Z,30.80
2019-04-21T16:29:29.513Z,29.40
2019-04-21T16:31:57.408Z,29.10
2019-04-21T16:34:36.083Z,28.90
2019-04-21T16:36:55.869Z,28.60
2019-04-21T16:39:23.448Z,29.10
2019-04-21T16:41:51.945Z,28.80
2019-04-21T16:44:20.987Z,28.20
2019-04-21T16:46:49.554Z,27.60
2019-04-21T16:49:18.334Z,27.30
2019-04-21T16:51:47.858Z,27.40
2019-04-21T16:54:28.421Z,27.70
2019-04-21T16:57:03.721Z,27.20
2019-04-21T16:59:36.774Z,26.80
2019-04-21T17:02:04.854Z,26.90
2019-04-21T17:04:33.742Z,26.30
2019-04-21T17:07:02.958Z,26.20
2019-04-21T17:09:32.565Z,26.00
2019-04-21T17:12:03.997Z,26.40
2019-04-21T17:14:45.255Z,26.40
2019-04-21T17:17:36.920Z,26.30
2019-04-21T17:19:33.460Z,26.50
2019-04-21T17:21:59.584Z,25.80
2019-04-21T17:24:28.647Z,26.90
2019-04-21T17:26:57.425Z,28.40
2019-04-21T17:29:25.753Z,28.70
2019-04-21T17:31:53.290Z,28.80
2019-04-21T17:34:24.915Z,29.90
2019-04-21T17:36:50.974Z,30.00
2019-04-21T17:39:18.741Z,31.40
2019-04-21T17:42:01.995Z,32.00
2019-04-21T17:44:17.125Z,33.20
2019-04-21T17:46:51.564Z,32.90
2019-04-21T17:49:14.992Z,34.20
2019-04-21T17:52:08.921Z,34.90
2019-04-21T17:54:43.800Z,36.00
2019-04-21T17:57:30.506Z,36.30
2019-04-21T18:02:30.081Z,36.90
2019-04-21T18:04:58.579Z,36.70
2019-04-21T18:07:27.402Z,37.50
2019-04-21T18:12:31.867Z,41.20
2019-04-21T18:14:53.029Z,40.40
2019-04-21T18:17:11.536Z,42.20
2019-04-21T18:19:41.814Z,43.30
2019-04-21T18:22:36.094Z,43.80
2019-04-21T18:25:06.722Z,44.50
2019-04-21T18:27:32.245Z,46.30
2019-04-21T18:30:04.390Z,47.00
2019-04-21T18:32:37.041Z,47.60
2019-04-21T18:35:17.759Z,47.50
2019-04-21T18:38:07.080Z,47.50
2019-04-21T18:40:28.009Z,47.70
2019-04-21T18:43:35.996Z,48.70
2019-04-21T18:46:17.049Z,49.00
2019-04-21T18:48:29.419Z,49.80
2019-04-21T18:51:15.782Z,50.50
2019-04-21T18:54:26.915Z,50.50
2019-04-21T18:56:33.656Z,51.20
2019-04-21T18:59:02.589Z,52.10
2019-04-21T19:01:33.310Z,53.00
2019-04-21T19:04:00.407Z,53.00
2019-04-21T19:06:47.026Z,53.30
2019-04-21T19:09:17.029Z,53.80
2019-04-21T19:11:42.541Z,54.60
2019-04-21T19:16:53.986Z,55.50
2019-04-21T19:19:39.226Z,55.70
2019-04-21T19:21:49.974Z,56.40
2019-04-21T19:24:27.076Z,56.80
2019-04-21T19:26:52.432Z,57.80
2019-04-21T19:29:24.089Z,57.00
2019-04-21T19:31:49.574Z,57.50
2019-04-21T19:34:06.124Z,57.90
2019-04-21T19:36:29.080Z,57.80
2019-04-21T19:39:06.773Z,58.30
2019-04-21T19:41:41.106Z,57.40
2019-04-21T19:44:15.755Z,58.50
2019-04-21T19:46:38.058Z,58.80
2019-04-21T19:49:22.770Z,59.30
2019-04-21T19:51:36.531Z,59.40
2019-04-21T19:54:03.709Z,59.60
2019-04-21T19:56:24.160Z,60.20
2019-04-21T19:58:52.946Z,60.80
2019-04-21T20:01:21.363Z,61.00
2019-04-21T20:03:55.523Z,61.20
2019-04-21T20:06:33.157Z,61.60
2019-04-21T20:09:09.585Z,62.10
2019-04-21T20:11:36.102Z,63.20
2019-04-21T20:14:32.582Z,62.70
2019-04-21T20:16:37.824Z,63.30
2019-04-21T20:18:52.952Z,63.90
2019-04-21T20:21:14.688Z,64.20
2019-04-21T20:23:43.243Z,64.50
2019-04-21T20:26:14.059Z,64.70
2019-04-21T20:28:54.683Z,64.90
2019-04-21T20:31:30.109Z,65.30
2019-04-21T20:36:35.364Z,65.90
2019-04-21T20:38:50.131Z,66.40
2019-04-21T20:41:24.134Z,66.50
2019-04-21T20:44:04.194Z,67.00
2019-04-21T20:46:24.963Z,67.30
2019-04-21T20:48:52.309Z,67.50
2019-04-21T20:51:27.366Z,67.90
2019-04-21T20:53:54.089Z,68.20
2019-04-21T20:56:17.877Z,68.70
2019-04-21T20:58:57.595Z,69.40
2019-04-21T21:01:39.465Z,69.50
2019-04-21T21:03:55.002Z,70.50
2019-04-21T21:06:21.831Z,70.50
2019-04-21T21:08:57.157Z,70.70
2019-04-21T21:11:24.287Z,70.90
2019-04-21T21:13:52.140Z,71.40
2019-04-21T21:16:29.203Z,71.70
2019-04-21T21:19:04.712Z,72.00
2019-04-21T21:21:23.492Z,72.20
2019-04-21T21:23:52.748Z,72.50
2019-04-21T21:26:25.727Z,73.20
2019-04-21T21:28:45.966Z,73.70
2019-04-21T21:31:17.788Z,74.00
2019-04-21T21:33:57.466Z,74.60
2019-04-21T21:36:20.926Z,74.90
2019-04-21T21:38:53.081Z,75.20
2019-04-21T21:41:10.859Z,74.90
2019-04-21T21:43:31.339Z,76.00
2019-04-21T21:46:04.882Z,77.10
2019-04-21T21:48:40.823Z,77.70
2019-04-21T21:51:08.211Z,77.90
2019-04-21T21:53:34.203Z,78.00
2019-04-21T21:56:02.641Z,78.40
2019-04-21T21:58:36.065Z,78.40
2019-04-21T22:01:02.971Z,78.80
2019-04-21T22:03:34.229Z,79.60
2019-04-21T22:06:06.221Z,79.60
2019-04-21T22:08:30.465Z,78.80
2019-04-21T22:10:59.051Z,79.20
2019-04-21T22:13:37.564Z,79.80
2019-04-21T22:16:03.855Z,79.90
2019-04-21T22:18:43.817Z,80.20
2019-04-21T22:21:10.055Z,80.50
2019-04-21T22:23:39.922Z,81.20
2019-04-21T22:25:57.828Z,81.20
2019-04-21T22:28:25.561Z,81.20
2019-04-21T22:30:54.971Z,81.40
2019-04-21T22:33:23.335Z,81.90
2019-04-21T22:36:00.173Z,82.30
2019-04-21T22:38:38.117Z,82.50
2019-04-21T22:41:00.361Z,82.80
2019-04-21T22:43:28.431Z,83.10
2019-04-21T22:45:49.581Z,83.10
2019-04-21T22:48:20.128Z,83.40
2019-04-21T22:50:46.906Z,83.40
2019-04-21T22:53:16.160Z,83.60
2019-04-21T22:55:45.094Z,83.70
2019-04-21T22:58:15.917Z,83.90
2019-04-21T23:00:46.085Z,84.40
2019-04-21T23:03:17.331Z,84.50
2019-04-21T23:05:44.429Z,84.70
2019-04-21T23:08:12.907Z,84.80
2019-04-21T23:10:47.922Z,84.80
2019-04-21T23:13:15.954Z,85.40
2019-04-21T23:15:47.070Z,85.50
2019-04-21T23:18:27.247Z,85.50
2019-04-21T23:20:55.110Z,85.80
2019-04-21T23:23:30.377Z,86.10
2019-04-21T23:25:53.356Z,86.90
2019-04-21T23:28:22.344Z,87.70
2019-04-21T23:30:56.696Z,89.30
2019-04-21T23:33:08.656Z,89.40
2019-04-21T23:35:40.550Z,89.50
2019-04-21T23:38:08.330Z,89.50
2019-04-21T23:40:35.229Z,89.40
2019-04-21T23:43:09.661Z,89.20
2019-04-21T23:45:38.018Z,89.10
2019-04-21T23:48:18.551Z,89.10
2019-04-21T23:50:43.106Z,89.20
2019-04-21T23:53:01.690Z,89.60
2019-04-21T23:55:29.483Z,89.60
2019-04-21T23:58:07.129Z,89.90
